Time;durP1;ratioP1;P1;durP2;ratioP2;P2;SDS_P1;SDS_P2;PMS_P1;PMS_P2;Temp;Humidity;BMP_temperature;BMP_pressure;BME280_temperature;BME280_humidity;BME280_pressure;Samples;Min_cycle;Max_cycle;Signal;HPM_P1;HPM_P2
2022/02/06 00:00:17;;;;;;;5.55;1.90;;;-0.20;99.90;;;;;;5091641;28;20192;-73
2022/02/06 00:02:46;;;;;;;4.55;2.70;;;-0.40;99.90;;;;;;5091464;28;20223;-73
2022/02/06 00:05:14;;;;;;;4.57;1.80;;;-0.40;99.90;;;;;;5091654;28;20160;-72
2022/02/06 00:07:40;;;;;;;3.95;2.22;;;-0.40;99.90;;;;;;5091054;28;20184;-73
2022/02/06 00:10:06;;;;;;;4.35;1.98;;;-0.30;99.90;;;;;;5091613;28;20188;-73
2022/02/06 00:12:33;;;;;;;3.03;1.95;;;-0.40;99.90;;;;;;5091585;28;20171;-73
2022/02/06 00:14:59;;;;;;;2.95;2.05;;;-0.30;99.90;;;;;;5091546;28;20144;-73
2022/02/06 00:17:28;;;;;;;4.80;2.05;;;-0.40;99.90;;;;;;5090970;28;20186;-73
2022/02/06 00:19:55;;;;;;;3.63;2.25;;;-0.30;99.90;;;;;;5091405;28;20187;-73
2022/02/06 00:23:23;;;;;;;2.58;2.25;;;-0.40;99.90;;;;;;5091285;28;20251;-73
2022/02/06 00:25:30;;;;;;;2.40;1.88;;;-0.40;99.90;;;;;;5094669;28;20229;-73
2022/02/06 00:28:18;;;;;;;2.10;1.35;;;-0.40;99.90;;;;;;5090367;28;20226;-73
2022/02/06 00:31:35;;;;;;;4.32;2.05;;;-0.40;99.90;;;;;;5090363;28;20212;-73
2022/02/06 00:33:46;;;;;;;2.35;1.40;;;-0.40;99.90;;;;;;5092440;28;20190;-73
2022/02/06 00:39:06;;;;;;;2.63;1.60;;;-0.40;99.90;;;;;;5091257;28;20214;-73
2022/02/06 00:41:37;;;;;;;2.67;1.60;;;-0.60;99.90;;;;;;5091328;28;20544;-72
2022/02/06 00:44:04;;;;;;;2.38;1.67;;;-0.80;99.90;;;;;;5091060;28;20209;-73
2022/02/06 00:46:38;;;;;;;4.05;1.70;;;-0.90;99.90;;;;;;5090869;28;20187;-73
2022/02/06 00:49:24;;;;;;;3.75;2.45;;;-1.00;99.90;;;;;;5091013;28;20211;-73
2022/02/06 00:52:04;;;;;;;4.43;2.40;;;-0.90;99.90;;;;;;5091127;28;20678;-73
2022/02/06 00:54:30;;;;;;;10.50;2.63;;;-0.80;99.90;;;;;;5083813;28;20267;-73
2022/02/06 00:56:56;;;;;;;5.15;1.65;;;-0.70;99.90;;;;;;5069990;28;20209;-73
2022/02/06 00:59:22;;;;;;;4.50;2.05;;;-0.80;99.90;;;;;;5070637;28;20167;-73
2022/02/06 01:01:48;;;;;;;7.97;2.67;;;-0.70;99.90;;;;;;5080520;28;20295;-73
2022/02/06 01:04:15;;;;;;;3.17;1.63;;;-0.70;99.90;;;;;;5071236;28;20173;-73
2022/02/06 01:06:41;;;;;;;9.57;2.38;;;-0.50;99.90;;;;;;5070414;28;20255;-73
2022/02/06 01:09:09;;;;;;;1.77;1.55;;;-0.50;99.90;;;;;;5070574;28;20580;-73
2022/02/06 01:11:36;;;;;;;5.22;2.22;;;-0.40;99.90;;;;;;5070495;28;20178;-73
2022/02/06 01:16:44;;;;;;;2.33;1.58;;;-0.50;99.90;;;;;;5070372;28;20252;-73
2022/02/06 01:19:16;;;;;;;2.33;1.52;;;-0.50;99.90;;;;;;5070533;28;20597;-72
2022/02/06 01:24:34;;;;;;;3.63;1.88;;;-0.70;99.90;;;;;;5070370;28;20180;-73
2022/02/06 01:27:10;;;;;;;1.92;1.60;;;-0.90;99.90;;;;;;5069992;28;20287;-73
2022/02/06 01:32:18;;;;;;;2.78;1.38;;;-1.30;99.90;;;;;;5070127;28;20167;-73
2022/02/06 01:34:50;;;;;;;2.88;1.42;;;-1.30;99.90;;;;;;5069937;28;20180;-73
2022/02/06 01:42:28;;;;;;;2.85;1.95;;;-1.20;99.90;;;;;;5070069;28;20567;-73
2022/02/06 02:05:03;;;;;;;3.90;1.33;;;-0.80;99.90;;;;;;5069643;28;20179;-73
2022/02/06 02:23:40;;;;;;;3.03;1.63;;;-1.30;99.90;;;;;;5087236;28;20168;-73
2022/02/06 02:47:11;;;;;;;2.38;1.40;;;-1.80;99.90;;;;;;5086761;28;20219;-73
2022/02/06 02:49:38;;;;;;;5.03;2.63;;;-1.90;99.90;;;;;;5086950;28;20227;-73
2022/02/06 02:52:11;;;;;;;4.47;1.92;;;-2.10;99.90;;;;;;5087137;28;20174;-72
2022/02/06 02:54:39;;;;;;;4.63;2.58;;;-2.10;99.90;;;;;;5069201;28;20203;-73
2022/02/06 02:57:22;;;;;;;3.97;2.05;;;-2.20;99.90;;;;;;5068715;28;20191;-72
2022/02/06 03:02:26;;;;;;;3.42;3.13;;;-2.20;99.90;;;;;;5068662;28;20250;-72
2022/02/06 03:04:55;;;;;;;5.70;2.65;;;-2.20;99.90;;;;;;5068789;28;20216;-72
2022/02/06 03:07:22;;;;;;;3.30;1.80;;;-2.20;99.90;;;;;;5068759;28;20188;-72
2022/02/06 03:09:49;;;;;;;5.00;2.28;;;-2.20;99.90;;;;;;5068813;28;20236;-72
2022/02/06 03:12:21;;;;;;;4.22;2.92;;;-2.20;99.90;;;;;;5068919;28;20144;-72
2022/02/06 03:14:55;;;;;;;5.50;2.65;;;-2.30;99.90;;;;;;5068610;28;20175;-72
2022/02/06 03:17:44;;;;;;;4.63;2.38;;;-2.30;99.90;;;;;;5068817;28;20157;-73
2022/02/06 03:20:17;;;;;;;4.32;2.65;;;-2.30;99.90;;;;;;5070055;28;20176;-73
2022/02/06 03:22:52;;;;;;;7.45;3.83;;;-2.30;99.90;;;;;;5072596;28;20180;-72
2022/02/06 03:25:21;;;;;;;4.95;3.67;;;-2.40;99.90;;;;;;5071890;28;20255;-72
2022/02/06 03:27:48;;;;;;;5.82;3.55;;;-2.50;99.90;;;;;;5072112;28;20181;-72
2022/02/06 03:30:15;;;;;;;5.65;3.33;;;-2.60;99.90;;;;;;5072290;28;20175;-72
2022/02/06 03:32:40;;;;;;;6.03;4.07;;;-2.70;99.90;;;;;;5072304;28;20176;-72
2022/02/06 03:35:07;;;;;;;9.70;3.53;;;-2.80;99.90;;;;;;5072180;28;20161;-72
2022/02/06 03:37:33;;;;;;;6.10;3.40;;;-2.90;99.90;;;;;;5072296;28;20180;-72
2022/02/06 03:40:03;;;;;;;6.57;3.88;;;-3.00;99.90;;;;;;5072214;28;20168;-72
2022/02/06 03:42:35;;;;;;;9.82;4.22;;;-2.90;99.90;;;;;;5072157;28;20210;-73
2022/02/06 03:45:06;;;;;;;4.70;2.90;;;-3.00;99.90;;;;;;5072001;28;20173;-73
2022/02/06 03:47:50;;;;;;;6.93;3.60;;;-3.00;99.90;;;;;;5071965;28;20211;-73
2022/02/06 03:50:17;;;;;;;7.82;3.33;;;-3.00;99.90;;;;;;5072020;28;20148;-73
2022/02/06 03:52:49;;;;;;;4.93;3.05;;;-3.00;99.90;;;;;;5070607;28;20165;-73
2022/02/06 03:55:20;;;;;;;5.03;2.92;;;-3.00;99.90;;;;;;5071814;28;20193;-73
2022/02/06 03:57:51;;;;;;;5.28;2.75;;;-3.00;99.90;;;;;;5071936;28;20153;-73
2022/02/06 04:00:18;;;;;;;4.75;3.10;;;-3.10;99.90;;;;;;5071844;28;20161;-73
2022/02/06 04:02:46;;;;;;;15.98;3.22;;;-2.90;99.90;;;;;;5071686;28;20219;-73
2022/02/06 04:05:17;;;;;;;5.55;3.05;;;-2.70;99.90;;;;;;5071715;28;20271;-73
2022/02/06 04:07:45;;;;;;;5.22;2.53;;;-2.60;99.90;;;;;;5071756;28;20193;-73
2022/02/06 04:10:13;;;;;;;3.67;2.50;;;-2.70;99.90;;;;;;5071743;28;20156;-73
2022/02/06 04:12:43;;;;;;;9.98;4.10;;;-2.70;99.90;;;;;;5071661;28;20149;-73
2022/02/06 04:15:19;;;;;;;6.03;3.25;;;-2.70;99.90;;;;;;5071443;28;20199;-73
2022/02/06 04:17:50;;;;;;;5.22;2.90;;;-2.70;99.90;;;;;;5071402;28;20646;-73
2022/02/06 04:20:16;;;;;;;7.15;4.47;;;-2.70;99.90;;;;;;5071452;28;20157;-73
2022/02/06 04:22:42;;;;;;;7.45;3.25;;;-2.70;99.90;;;;;;5071375;28;20164;-73
2022/02/06 04:25:08;;;;;;;6.72;3.05;;;-2.50;99.90;;;;;;5071351;28;20165;-73
2022/02/06 04:27:35;;;;;;;4.55;2.70;;;-2.50;99.90;;;;;;5071251;28;20206;-73
2022/02/06 04:30:00;;;;;;;3.60;2.95;;;-2.50;99.90;;;;;;5071279;28;20165;-73
2022/02/06 04:32:27;;;;;;;6.20;2.85;;;-2.50;99.90;;;;;;5070353;28;20168;-73
2022/02/06 04:34:55;;;;;;;6.47;2.63;;;-2.40;99.90;;;;;;5071270;28;20168;-73
2022/02/06 05:15:12;;;;;;;15.65;6.20;;;-2.00;99.90;;;;;;5070392;28;20192;-73
2022/02/06 05:30:59;;;;;;;10.45;6.10;;;-2.20;99.90;;;;;;5070355;28;20175;-73
2022/02/06 05:33:25;;;;;;;14.40;5.93;;;-2.20;99.90;;;;;;5070169;28;20152;-73
2022/02/06 05:35:51;;;;;;;10.85;5.20;;;-2.20;99.90;;;;;;5069922;28;20275;-73
2022/02/06 05:38:17;;;;;;;13.23;4.18;;;-2.20;99.90;;;;;;5069971;28;20168;-73
2022/02/06 05:40:42;;;;;;;7.20;4.65;;;-2.20;99.90;;;;;;5069923;28;20203;-72
2022/02/06 05:43:08;;;;;;;7.00;4.43;;;-2.20;99.90;;;;;;5069728;28;20161;-72
2022/02/06 05:45:34;;;;;;;9.10;3.60;;;-2.20;99.90;;;;;;5069716;28;20204;-73
2022/02/06 05:48:00;;;;;;;6.88;4.15;;;-2.20;99.90;;;;;;5069639;28;20200;-73
2022/02/06 05:50:27;;;;;;;6.22;4.20;;;-2.20;99.90;;;;;;5069774;28;20157;-73
2022/02/06 05:52:54;;;;;;;7.70;3.50;;;-2.20;99.90;;;;;;5069442;28;20172;-72
2022/02/06 05:55:20;;;;;;;6.45;3.55;;;-2.20;99.90;;;;;;5069390;28;20189;-72
2022/02/06 05:57:46;;;;;;;7.25;4.15;;;-2.20;99.90;;;;;;5069419;28;20622;-73
2022/02/06 06:00:13;;;;;;;7.53;3.78;;;-2.20;99.90;;;;;;5069553;28;20248;-73
2022/02/06 06:02:39;;;;;;;7.63;3.88;;;-2.10;99.90;;;;;;5069299;28;20233;-73
2022/02/06 06:05:05;;;;;;;6.40;3.50;;;-2.00;99.90;;;;;;5069486;28;20180;-72
2022/02/06 06:07:31;;;;;;;8.27;4.18;;;-2.00;99.90;;;;;;5068029;28;20630;-73
2022/02/06 06:09:57;;;;;;;9.93;3.35;;;-2.00;99.90;;;;;;5069463;28;20251;-73
2022/02/06 06:12:23;;;;;;;5.15;3.42;;;-1.90;99.90;;;;;;5069328;28;20175;-72
2022/02/06 06:14:49;;;;;;;13.05;5.32;;;-1.90;99.90;;;;;;5069382;28;20189;-73
2022/02/06 06:17:16;;;;;;;9.80;4.35;;;-1.90;99.90;;;;;;5069283;28;20192;-73
2022/02/06 06:19:47;;;;;;;3.65;2.80;;;-1.80;99.90;;;;;;5069274;28;20161;-73
2022/02/06 06:22:14;;;;;;;6.57;3.80;;;-1.80;99.90;;;;;;5069280;28;20220;-72
2022/02/06 06:24:44;;;;;;;17.42;6.57;;;-1.80;99.90;;;;;;5069322;28;20168;-72
2022/02/06 06:27:11;;;;;;;10.63;4.60;;;-1.70;99.90;;;;;;5068929;28;20223;-73
2022/02/06 06:29:38;;;;;;;12.05;4.53;;;-1.80;99.90;;;;;;5069299;28;20163;-72
2022/02/06 06:32:05;;;;;;;6.18;3.15;;;-1.80;99.90;;;;;;5069283;28;20192;-72
2022/02/06 06:34:30;;;;;;;8.05;3.60;;;-1.80;99.90;;;;;;5069151;28;20220;-73
2022/02/06 06:36:56;;;;;;;5.35;3.97;;;-1.80;99.90;;;;;;5068959;28;20195;-73
2022/02/06 06:39:33;;;;;;;7.50;3.85;;;-1.80;99.90;;;;;;5068908;28;20152;-73
2022/02/06 06:41:59;;;;;;;8.05;5.20;;;-1.80;99.90;;;;;;5068874;28;20206;-73
2022/02/06 06:44:26;;;;;;;6.43;4.78;;;-1.60;99.90;;;;;;5069071;28;20165;-72
2022/02/06 06:46:52;;;;;;;5.63;4.07;;;-1.50;99.90;;;;;;5068701;28;20238;-73
2022/02/06 06:49:18;;;;;;;8.73;4.07;;;-1.40;99.90;;;;;;5068851;28;20160;-73
2022/02/06 06:51:44;;;;;;;8.85;4.25;;;-1.40;99.90;;;;;;5067489;28;20169;-72
2022/02/06 06:54:15;;;;;;;14.02;4.82;;;-1.50;99.90;;;;;;5068820;28;20168;-72
2022/02/06 07:02:18;;;;;;;7.60;4.40;;;-1.40;99.90;;;;;;5072628;28;20307;-72
2022/02/06 07:04:47;;;;;;;7.50;5.15;;;-1.40;99.90;;;;;;5072784;28;20149;-73
2022/02/06 07:07:13;;;;;;;8.82;6.05;;;-1.50;99.90;;;;;;5072457;28;20199;-72
2022/02/06 07:09:39;;;;;;;7.57;5.78;;;-1.40;99.90;;;;;;5072572;28;20164;-72
2022/02/06 07:12:07;;;;;;;8.23;5.03;;;-1.40;99.90;;;;;;5071323;28;20468;-73
2022/02/06 07:14:33;;;;;;;9.13;5.45;;;-1.30;99.90;;;;;;5072411;28;20182;-73
2022/02/06 07:16:59;;;;;;;7.20;4.13;;;-1.30;99.90;;;;;;5072315;28;20248;-73
2022/02/06 07:19:25;;;;;;;9.32;4.30;;;-1.20;99.90;;;;;;5072513;28;20161;-73
2022/02/06 07:21:51;;;;;;;7.40;4.60;;;-1.20;99.90;;;;;;5072235;28;20188;-73
2022/02/06 07:24:18;;;;;;;6.95;4.70;;;-1.10;99.90;;;;;;5072327;28;20630;-73
2022/02/06 07:26:47;;;;;;;8.27;4.32;;;-1.10;99.90;;;;;;5072146;28;20634;-73
2022/02/06 07:29:16;;;;;;;9.25;4.90;;;-1.20;99.90;;;;;;5072175;28;20149;-73
2022/02/06 07:31:43;;;;;;;11.57;5.18;;;-1.10;99.90;;;;;;5072131;28;20149;-73
2022/02/06 07:34:09;;;;;;;9.82;4.47;;;-1.10;99.90;;;;;;5072213;28;20169;-74
2022/02/06 07:36:35;;;;;;;4.10;3.67;;;-1.20;99.90;;;;;;5072028;28;20200;-73
2022/02/06 07:39:01;;;;;;;8.77;4.45;;;-1.00;99.90;;;;;;5072160;28;20675;-74
2022/02/06 07:41:27;;;;;;;8.48;4.25;;;-1.00;99.90;;;;;;5072145;28;20168;-73
2022/02/06 07:43:52;;;;;;;7.60;4.43;;;-0.90;99.90;;;;;;5072094;28;20163;-73
2022/02/06 07:46:23;;;;;;;12.63;5.25;;;-0.90;99.90;;;;;;5071932;28;20192;-73
2022/02/06 07:48:49;;;;;;;10.13;4.97;;;-0.80;99.90;;;;;;5071810;28;20211;-73
2022/02/06 07:51:15;;;;;;;6.40;4.68;;;-0.80;99.90;;;;;;5071350;28;20161;-73
2022/02/06 07:53:41;;;;;;;10.23;4.88;;;-0.80;99.90;;;;;;5074471;28;20263;-73
2022/02/06 07:56:07;;;;;;;8.90;4.18;;;-0.70;99.90;;;;;;5071727;28;20248;-73
2022/02/06 07:58:33;;;;;;;9.65;4.70;;;-0.70;99.90;;;;;;5073169;28;20171;-73
2022/02/06 08:00:59;;;;;;;7.03;4.28;;;-0.60;99.90;;;;;;5081919;28;20224;-73
2022/02/06 08:03:26;;;;;;;9.38;5.18;;;-0.50;99.90;;;;;;5070023;28;20195;-73
2022/02/06 08:05:52;;;;;;;5.60;4.15;;;-0.50;99.90;;;;;;5071379;28;20192;-72
2022/02/06 08:08:18;;;;;;;6.80;5.22;;;-0.30;99.90;;;;;;5071381;28;20231;-74
2022/02/06 08:10:44;;;;;;;8.40;3.92;;;-0.20;99.90;;;;;;5071528;28;20183;-73
2022/02/06 08:13:20;;;;;;;17.48;4.93;;;-0.30;99.90;;;;;;5071584;28;20251;-73
2022/02/06 08:15:46;;;;;;;10.35;4.97;;;-0.20;99.90;;;;;;5071293;28;20184;-74
2022/02/06 08:18:12;;;;;;;6.80;5.05;;;-0.10;99.90;;;;;;5071370;28;20210;-73
2022/02/06 08:20:40;;;;;;;7.63;4.63;;;-0.10;99.90;;;;;;5071137;28;20227;-73
2022/02/06 08:23:07;;;;;;;6.93;4.63;;;-0.20;99.90;;;;;;5071164;28;20167;-72
2022/02/06 08:25:33;;;;;;;9.63;5.10;;;-0.10;99.90;;;;;;5071024;28;20276;-72
2022/02/06 08:28:00;;;;;;;8.18;5.68;;;0.10;99.90;;;;;;5071063;28;20190;-72
2022/02/06 08:30:26;;;;;;;8.35;5.43;;;0.20;99.90;;;;;;5071080;28;20159;-72
2022/02/06 08:32:53;;;;;;;11.73;6.18;;;0.30;99.90;;;;;;5071071;28;20180;-72
2022/02/06 08:35:19;;;;;;;11.15;5.85;;;0.40;99.90;;;;;;5071088;28;20185;-72
2022/02/06 08:37:45;;;;;;;10.48;5.63;;;0.30;99.90;;;;;;5071128;28;20184;-73
2022/02/06 08:40:15;;;;;;;8.43;5.18;;;0.40;99.90;;;;;;5071147;28;20165;-73
2022/02/06 08:42:46;;;;;;;12.20;6.32;;;0.50;99.90;;;;;;5071076;28;20152;-73
2022/02/06 08:45:12;;;;;;;10.32;6.35;;;0.60;99.90;;;;;;5070911;28;20157;-74
2022/02/06 08:47:39;;;;;;;12.55;6.63;;;0.70;99.90;;;;;;5070822;28;20200;-73
2022/02/06 08:50:06;;;;;;;9.68;5.32;;;0.70;99.90;;;;;;5070851;28;20161;-73
2022/02/06 08:52:32;;;;;;;10.25;5.75;;;0.60;99.90;;;;;;5070697;28;20176;-74
2022/02/06 08:55:00;;;;;;;15.55;6.25;;;0.80;99.90;;;;;;5070544;28;20153;-73
2022/02/06 08:57:26;;;;;;;13.05;6.70;;;0.90;99.90;;;;;;5069215;28;20200;-73
2022/02/06 08:59:56;;;;;;;11.40;6.30;;;0.90;99.90;;;;;;5070652;28;20284;-73
2022/02/06 09:02:23;;;;;;;8.13;6.10;;;0.90;99.90;;;;;;5070431;28;20284;-73
2022/02/06 09:04:49;;;;;;;8.70;5.97;;;1.00;99.90;;;;;;5069236;28;20176;-74
2022/02/06 09:07:20;;;;;;;9.15;5.45;;;1.20;99.90;;;;;;5070385;28;20264;-74
2022/02/06 09:09:49;;;;;;;8.65;4.78;;;1.10;99.90;;;;;;5070463;28;20173;-73
2022/02/06 09:12:17;;;;;;;7.88;4.65;;;1.00;99.90;;;;;;5070510;28;20156;-74
2022/02/06 09:14:43;;;;;;;6.47;4.95;;;1.10;99.90;;;;;;5070386;28;20163;-74
2022/02/06 09:17:09;;;;;;;8.63;5.38;;;1.10;99.90;;;;;;5069997;28;20211;-73
2022/02/06 09:19:37;;;;;;;7.70;5.47;;;1.20;99.90;;;;;;5070213;28;20168;-73
2022/02/06 09:22:04;;;;;;;11.50;5.72;;;1.30;99.90;;;;;;5069012;28;20190;-73
2022/02/06 09:24:30;;;;;;;8.80;4.97;;;1.60;99.90;;;;;;5070297;28;20172;-73
2022/02/06 09:26:57;;;;;;;10.13;5.55;;;1.80;99.90;;;;;;5070121;28;20203;-74
2022/02/06 09:29:23;;;;;;;13.27;5.88;;;1.90;99.90;;;;;;5070176;28;20521;-73
2022/02/06 09:31:51;;;;;;;11.48;5.40;;;2.30;99.90;;;;;;5070085;28;20165;-73
2022/02/06 09:36:45;;;;;;;9.10;4.50;;;2.50;99.90;;;;;;5069954;28;20208;-73
2022/02/06 09:39:12;;;;;;;7.00;4.50;;;2.70;99.90;;;;;;5069986;28;20161;-73
2022/02/06 09:41:44;;;;;;;11.00;5.38;;;2.80;99.90;;;;;;5069877;28;20225;-73
2022/02/06 09:44:11;;;;;;;13.07;4.75;;;2.90;99.90;;;;;;5069768;28;20153;-73
2022/02/06 09:46:39;;;;;;;10.45;5.10;;;3.00;99.90;;;;;;5069637;28;20330;-74
2022/02/06 09:49:06;;;;;;;7.72;5.88;;;3.20;99.90;;;;;;5069886;28;20203;-73
2022/02/06 09:51:33;;;;;;;13.13;6.05;;;3.50;99.90;;;;;;5069652;28;20228;-73
2022/02/06 09:54:03;;;;;;;10.98;5.68;;;4.00;99.90;;;;;;5069649;28;20186;-74
2022/02/06 09:56:32;;;;;;;10.05;4.90;;;4.30;99.90;;;;;;5069599;28;20188;-74
2022/02/06 09:59:06;;;;;;;8.45;5.05;;;4.20;99.90;;;;;;5068098;28;20175;-75
2022/02/06 10:01:34;;;;;;;8.82;4.63;;;4.10;99.90;;;;;;5069381;28;20217;-74
2022/02/06 10:04:07;;;;;;;12.70;5.53;;;4.20;99.90;;;;;;5069639;28;20172;-71
2022/02/06 10:06:44;;;;;;;9.88;4.63;;;4.10;99.90;;;;;;5069395;28;20192;-73
2022/02/06 10:09:16;;;;;;;7.47;4.40;;;4.00;99.90;;;;;;5069495;28;20192;-73
2022/02/06 10:11:46;;;;;;;15.18;6.25;;;3.90;99.90;;;;;;5069297;28;20211;-73
2022/02/06 10:14:13;;;;;;;10.50;5.10;;;3.80;99.90;;;;;;5069271;28;20180;-73
2022/02/06 10:16:39;;;;;;;9.05;5.25;;;4.10;99.90;;;;;;5079884;28;20199;-73
2022/02/06 10:19:05;;;;;;;9.52;5.22;;;4.80;99.90;;;;;;5085608;28;20223;-73
2022/02/06 10:21:34;;;;;;;11.18;5.28;;;5.30;99.90;;;;;;5087807;28;20152;-73
2022/02/06 10:24:07;;;;;;;8.98;5.78;;;5.70;99.90;;;;;;5089161;28;20191;-73
2022/02/06 10:26:39;;;;;;;8.52;5.25;;;6.70;99.90;;;;;;5089201;28;20557;-73
2022/02/06 10:29:37;;;;;;;9.88;5.00;;;7.30;99.90;;;;;;5088672;28;20725;-73
2022/02/06 10:31:59;;;;;;;10.93;5.25;;;8.70;99.90;;;;;;5088871;28;20179;-74
2022/02/06 10:34:27;;;;;;;7.13;5.40;;;10.10;99.90;;;;;;5089047;28;20628;-73
2022/02/06 10:37:12;;;;;;;8.20;4.95;;;10.50;99.90;;;;;;5088881;28;20152;-73
2022/02/06 10:39:49;;;;;;;6.03;3.95;;;9.80;99.90;;;;;;5089238;28;20231;-74
2022/02/06 10:42:26;;;;;;;8.52;4.28;;;10.40;99.90;;;;;;5089321;28;20156;-73
2022/02/06 10:45:15;;;;;;;6.05;4.28;;;11.70;99.90;;;;;;5089064;28;20194;-73
2022/02/06 10:47:42;;;;;;;6.72;4.50;;;12.50;99.60;;;;;;5088732;28;20199;-72
2022/02/06 10:50:20;;;;;;;7.63;4.20;;;12.50;99.90;;;;;;5088918;28;20158;-73
2022/02/06 10:52:47;;;;;;;8.38;4.80;;;12.90;99.40;;;;;;5089110;28;20156;-73
2022/02/06 10:55:18;;;;;;;10.35;5.07;;;13.90;98.30;;;;;;5088894;28;20202;-73
2022/02/06 10:58:02;;;;;;;7.50;5.53;;;14.70;96.40;;;;;;5088942;28;20583;-72
2022/02/06 11:00:31;;;;;;;9.05;5.07;;;14.60;96.60;;;;;;5089019;28;20179;-73
2022/02/06 11:03:04;;;;;;;9.98;4.75;;;14.50;96.10;;;;;;5088690;28;20242;-73
2022/02/06 11:05:51;;;;;;;6.05;4.80;;;13.70;95.40;;;;;;5087578;28;20168;-73
2022/02/06 11:08:29;;;;;;;6.35;4.50;;;12.80;96.50;;;;;;5088918;28;20192;-73
2022/02/06 11:11:07;;;;;;;7.70;4.90;;;13.50;96.30;;;;;;5089011;28;20160;-73
2022/02/06 11:13:34;;;;;;;9.63;5.10;;;13.70;95.50;;;;;;5088627;28;20278;-73
2022/02/06 11:16:07;;;;;;;5.90;3.67;;;13.30;96.00;;;;;;5088887;28;20167;-73
2022/02/06 11:18:39;;;;;;;6.47;3.97;;;13.20;96.10;;;;;;5088846;28;20153;-73
2022/02/06 11:21:10;;;;;;;7.22;4.80;;;12.80;96.60;;;;;;5088648;28;20153;-71
2022/02/06 11:23:38;;;;;;;9.38;5.50;;;13.00;97.20;;;;;;5088644;28;20184;-73
2022/02/06 11:26:06;;;;;;;8.52;4.38;;;13.20;96.10;;;;;;5088679;28;20159;-73
2022/02/06 11:28:32;;;;;;;5.38;3.58;;;12.80;95.80;;;;;;5088449;28;20188;-71
2022/02/06 11:30:58;;;;;;;11.50;4.88;;;12.30;96.10;;;;;;5088628;28;20159;-72
2022/02/06 11:33:26;;;;;;;6.03;3.42;;;12.30;96.60;;;;;;5088570;28;20213;-71
2022/02/06 11:36:02;;;;;;;5.50;3.30;;;12.50;95.80;;;;;;5088517;28;20156;-73
2022/02/06 11:44:26;;;;;;;7.05;4.40;;;12.50;95.50;;;;;;5091058;28;20287;-73
2022/02/06 11:47:11;;;;;;;9.65;3.58;;;13.70;94.60;;;;;;5090934;28;20172;-74
2022/02/06 11:49:46;;;;;;;5.90;3.53;;;13.90;94.50;;;;;;5092056;28;20168;-74
2022/02/06 11:52:13;;;;;;;4.55;3.33;;;14.20;94.60;;;;;;5092076;28;20144;-73
2022/02/06 11:54:48;;;;;;;9.27;3.83;;;13.90;95.30;;;;;;5091918;28;20215;-73
2022/02/06 12:00:09;;;;;;;9.75;4.50;;;12.90;96.10;;;;;;5091828;28;20160;-73
2022/02/06 12:02:46;;;;;;;6.65;3.92;;;13.50;95.30;;;;;;5091048;28;20220;-73
2022/02/06 12:05:14;;;;;;;7.45;4.07;;;13.20;95.30;;;;;;5091622;28;20196;-73
2022/02/06 12:07:52;;;;;;;7.90;4.40;;;12.60;95.80;;;;;;5091713;28;20712;-72
2022/02/06 12:10:18;;;;;;;6.38;3.53;;;12.30;97.40;;;;;;5091677;28;20156;-72
2022/02/06 12:12:46;;;;;;;5.47;4.15;;;12.30;95.70;;;;;;5091691;28;20186;-72
2022/02/06 12:15:30;;;;;;;9.05;4.15;;;12.60;95.30;;;;;;5091238;28;20259;-72
2022/02/06 12:18:10;;;;;;;5.95;3.38;;;13.00;95.90;;;;;;5091516;28;20164;-72
2022/02/06 12:20:51;;;;;;;8.60;4.10;;;13.90;95.40;;;;;;5091440;28;20239;-73
2022/02/06 12:23:39;;;;;;;11.77;3.95;;;14.10;95.00;;;;;;5091433;28;20188;-73
2022/02/06 12:26:40;;;;;;;7.05;4.00;;;13.60;94.80;;;;;;5091419;28;20159;-72
2022/02/06 12:29:16;;;;;;;6.22;4.10;;;13.20;94.50;;;;;;5092477;28;20198;-72
2022/02/06 12:31:49;;;;;;;9.05;3.72;;;12.70;96.60;;;;;;5109586;28;20199;-72
2022/02/06 12:37:28;;;;;;;5.57;3.25;;;13.70;95.20;;;;;;5109361;28;20606;-72
2022/02/06 12:40:00;;;;;;;3.53;2.97;;;14.30;94.00;;;;;;5109107;28;20278;-72
2022/02/06 12:42:58;;;;;;;6.65;3.78;;;13.60;94.80;;;;;;5109324;28;20163;-72
2022/02/06 12:45:26;;;;;;;6.20;3.30;;;12.00;95.60;;;;;;5109275;28;20193;-71
2022/02/06 12:47:57;;;;;;;6.07;3.47;;;11.00;97.30;;;;;;5109097;28;20271;-72
2022/02/06 12:50:23;;;;;;;7.38;3.80;;;10.30;99.10;;;;;;5109223;28;20223;-72
2022/02/06 12:52:51;;;;;;;5.40;3.40;;;10.20;99.20;;;;;;5108127;28;20210;-72
2022/02/06 12:55:18;;;;;;;5.18;3.40;;;9.70;98.90;;;;;;5109192;28;20194;-72
2022/02/06 12:57:52;;;;;;;4.68;3.00;;;9.10;99.70;;;;;;5108953;28;20189;-71
2022/02/06 13:00:39;;;;;;;8.15;4.18;;;8.70;99.90;;;;;;5108866;28;20232;-72
2022/02/06 13:03:20;;;;;;;5.55;3.35;;;8.50;99.90;;;;;;5108864;28;20180;-71
2022/02/06 13:06:02;;;;;;;6.95;3.55;;;8.60;99.90;;;;;;5110018;28;20187;-72
2022/02/06 13:08:29;;;;;;;6.90;3.40;;;8.60;99.90;;;;;;5110562;28;20194;-72
2022/02/06 13:11:03;;;;;;;5.68;3.10;;;8.40;99.90;;;;;;5110646;28;20156;-72
2022/02/06 13:13:45;;;;;;;5.47;3.85;;;8.60;99.90;;;;;;5110748;28;20190;-72
2022/02/06 13:16:33;;;;;;;4.10;3.03;;;8.80;99.90;;;;;;5110656;28;20155;-73
2022/02/06 13:22:04;;;;;;;4.40;2.92;;;8.80;99.90;;;;;;5110679;28;20177;-72
2022/02/06 13:24:48;;;;;;;5.53;3.20;;;8.70;99.90;;;;;;5110304;28;20336;-72
2022/02/06 13:30:06;;;;;;;5.72;3.28;;;8.30;99.90;;;;;;5110452;28;20151;-72
2022/02/06 13:38:09;;;;;;;5.93;3.30;;;8.30;99.90;;;;;;5110391;28;20654;-72
2022/02/06 13:40:47;;;;;;;5.25;2.97;;;8.40;99.90;;;;;;5110422;28;20179;-72
2022/02/06 13:43:22;;;;;;;5.50;2.53;;;8.50;99.90;;;;;;5110260;28;20179;-72
2022/02/06 13:45:51;;;;;;;5.72;3.42;;;8.30;99.90;;;;;;5110303;28;20182;-72
2022/02/06 13:48:20;;;;;;;10.20;2.70;;;8.20;99.90;;;;;;5110189;28;20692;-72
2022/02/06 13:50:52;;;;;;;5.60;3.17;;;8.10;99.90;;;;;;5110195;28;20154;-72
2022/02/06 13:53:24;;;;;;;3.83;3.08;;;8.00;99.90;;;;;;5110204;28;20187;-72
2022/02/06 13:55:56;;;;;;;5.10;2.97;;;8.20;99.90;;;;;;5109988;28;20167;-73
2022/02/06 13:58:26;;;;;;;4.65;3.30;;;8.50;99.90;;;;;;5109803;28;20156;-72
2022/02/06 14:01:04;;;;;;;6.07;3.17;;;8.70;99.90;;;;;;5109505;28;20159;-72
2022/02/06 14:03:52;;;;;;;4.28;3.05;;;8.40;99.90;;;;;;5109384;28;20194;-72
2022/02/06 14:06:36;;;;;;;5.90;3.15;;;8.50;99.90;;;;;;5109680;28;20176;-72
2022/02/06 14:09:08;;;;;;;4.88;3.45;;;8.60;99.90;;;;;;5109579;28;20190;-72
2022/02/06 14:11:35;;;;;;;5.88;3.53;;;8.70;99.90;;;;;;5109758;28;20148;-72
2022/02/06 14:14:18;;;;;;;10.27;3.05;;;8.70;99.90;;;;;;5108283;28;20255;-72
2022/02/06 14:16:49;;;;;;;4.53;3.30;;;8.80;99.90;;;;;;5109744;28;20157;-73
2022/02/06 14:19:42;;;;;;;4.35;3.10;;;8.80;99.90;;;;;;5109753;28;20208;-72
2022/02/06 14:22:09;;;;;;;4.57;3.10;;;8.70;99.90;;;;;;5109471;28;20159;-72
2022/02/06 14:24:49;;;;;;;11.98;5.47;;;8.60;99.90;;;;;;5109561;28;20210;-72
2022/02/06 14:27:46;;;;;;;17.85;6.40;;;8.50;99.90;;;;;;5109523;28;20694;-73
2022/02/06 14:30:19;;;;;;;7.57;4.53;;;8.40;99.90;;;;;;5109079;28;20238;-72
2022/02/06 14:33:01;;;;;;;11.15;3.60;;;8.30;99.90;;;;;;5109476;28;20167;-72
2022/02/06 14:35:57;;;;;;;8.07;3.55;;;8.30;99.90;;;;;;5109357;28;20696;-72
2022/02/06 14:38:38;;;;;;;10.02;4.53;;;8.20;99.90;;;;;;5109392;28;20217;-72
2022/02/06 14:44:04;;;;;;;7.50;3.58;;;8.20;99.90;;;;;;5109405;28;20195;-72
2022/02/06 14:46:32;;;;;;;6.03;3.08;;;8.20;99.90;;;;;;5109558;28;20159;-72
2022/02/06 14:49:04;;;;;;;5.57;2.92;;;8.10;99.90;;;;;;5107915;28;20224;-73
2022/02/06 14:51:32;;;;;;;5.60;3.35;;;8.00;99.90;;;;;;5109347;28;20162;-72
2022/02/06 14:54:03;;;;;;;6.70;4.30;;;7.90;99.90;;;;;;5109277;28;20196;-73
2022/02/06 14:56:30;;;;;;;6.60;3.70;;;7.80;99.90;;;;;;5109280;28;20652;-72
2022/02/06 14:58:57;;;;;;;5.55;3.67;;;7.70;99.90;;;;;;5109128;28;20224;-72
2022/02/06 15:01:23;;;;;;;6.18;4.03;;;7.60;99.90;;;;;;5109036;28;20219;-72
2022/02/06 15:03:49;;;;;;;7.20;3.47;;;7.50;99.90;;;;;;5109159;28;20187;-73
2022/02/06 15:06:15;;;;;;;6.90;3.15;;;7.40;99.90;;;;;;5089374;28;20250;-72
2022/02/06 15:08:41;;;;;;;6.13;3.33;;;7.40;99.90;;;;;;5088128;28;20191;-72
2022/02/06 15:11:07;;;;;;;7.55;4.32;;;7.30;99.90;;;;;;5088774;28;20160;-72
2022/02/06 15:13:34;;;;;;;10.50;3.38;;;7.30;99.90;;;;;;5088765;28;20278;-72
2022/02/06 15:16:09;;;;;;;6.85;3.97;;;7.30;99.90;;;;;;5088629;28;20200;-72
2022/02/06 15:18:47;;;;;;;6.22;3.67;;;7.20;99.90;;;;;;5092066;28;20162;-72
2022/02/06 15:21:13;;;;;;;9.43;3.75;;;7.20;99.90;;;;;;5092642;28;20157;-72
2022/02/06 15:23:40;;;;;;;7.82;4.40;;;7.20;99.90;;;;;;5092461;28;20203;-73
2022/02/06 15:26:07;;;;;;;10.13;4.10;;;7.10;99.90;;;;;;5092572;28;20181;-72
2022/02/06 15:28:33;;;;;;;9.40;4.13;;;7.10;99.90;;;;;;5091903;28;20195;-73
2022/02/06 15:30:59;;;;;;;8.73;3.83;;;7.10;99.90;;;;;;5091482;28;20314;-73
2022/02/06 15:33:25;;;;;;;7.95;4.25;;;7.00;99.90;;;;;;5092478;28;20248;-73
2022/02/06 15:35:51;;;;;;;8.77;4.80;;;7.00;99.90;;;;;;5092409;28;20187;-73
2022/02/06 15:38:20;;;;;;;8.63;4.30;;;6.90;99.90;;;;;;5091664;28;20696;-73
2022/02/06 15:40:47;;;;;;;7.00;3.75;;;6.90;99.90;;;;;;5092129;28;20203;-72
2022/02/06 15:43:13;;;;;;;10.30;4.88;;;6.80;99.90;;;;;;5092129;28;20176;-72
2022/02/06 15:45:39;;;;;;;9.52;4.43;;;6.70;99.90;;;;;;5092091;28;20152;-72